Delfzijl, Netherlands
Current Conditions -  °F | °C
As of 12:25 AM on Friday 19 Dec 2014 (Local Time) from EHGG Reporting Station
Drizzle Drizzle  
Wind Chill: 52°   Ceiling: 1000
Heat Index: 52°   Visibility: 6mi
Dew Point: 50°   Wind: 21mph
Humidity: 94%   Direction: 240°WSW
Pressure: 29.68"   Gusts: NA
Location:  53.33°N, 6.92°E
Report Text: EHGG 182325Z AUTO 24018KT 210V270 9999 -DZ FEW008 BKN010 BKN013BKN015CB 11/10 Q1005 REDZ
Loading
Personal Weather Stations






























Interactive Weather Map New forecast layout! Learn more

10-Day Weather Forecast

Advertisements
Track Severe Weather on mobile